Time;durP1;ratioP1;P1;durP2;ratioP2;P2;SDS_P1;SDS_P2;PMS_P1;PMS_P2;Temp;Humidity;BMP_temperature;BMP_pressure;BME280_temperature;BME280_humidity;BME280_pressure;Samples;Min_cycle;Max_cycle;Signal;HPM_P1;HPM_P2
2021/07/11 00:02:20;;;;;;;5.30;4.90;;;16.40;99.90;;;;;;5100359;28;20206;-46
2021/07/11 00:04:47;;;;;;;6.10;5.27;;;16.30;99.90;;;;;;5104547;28;20296;-50
2021/07/11 00:07:14;;;;;;;5.50;4.97;;;16.30;99.90;;;;;;5101739;28;20358;-46
2021/07/11 00:09:42;;;;;;;7.30;6.60;;;16.30;99.90;;;;;;5104709;28;20719;-49
2021/07/11 00:12:10;;;;;;;6.47;5.93;;;16.30;99.90;;;;;;5093499;28;20209;-46
2021/07/11 00:14:37;;;;;;;6.23;5.73;;;16.20;99.90;;;;;;5106282;28;20394;-50
2021/07/11 00:17:04;;;;;;;6.23;5.70;;;16.20;99.90;;;;;;5106689;28;20193;-47
2021/07/11 00:19:31;;;;;;;6.47;5.87;;;16.20;99.90;;;;;;5105187;28;20945;-51
2021/07/11 00:21:57;;;;;;;6.27;5.77;;;16.20;99.90;;;;;;5108413;28;20196;-54
2021/07/11 00:24:24;;;;;;;6.53;5.93;;;16.20;99.90;;;;;;5104113;28;20856;-51
2021/07/11 00:26:52;;;;;;;6.30;5.67;;;16.20;99.90;;;;;;5094291;28;20292;-50
2021/07/11 00:29:18;;;;;;;6.50;6.00;;;16.10;99.90;;;;;;5104275;28;20655;-47
2021/07/11 00:31:46;;;;;;;6.67;6.10;;;16.10;99.90;;;;;;5108346;28;20683;-51
2021/07/11 00:34:13;;;;;;;6.13;5.17;;;16.10;99.90;;;;;;5105457;28;20212;-50
2021/07/11 00:36:40;;;;;;;7.70;5.83;;;16.00;99.90;;;;;;5106517;28;20305;-50
2021/07/11 00:39:07;;;;;;;6.00;5.50;;;16.00;99.90;;;;;;5105063;28;20327;-51
2021/07/11 00:41:38;;;;;;;6.37;5.87;;;16.00;99.90;;;;;;5104443;28;20170;-50
2021/07/11 00:44:07;;;;;;;7.27;5.50;;;16.00;99.90;;;;;;5091215;28;20719;-49
2021/07/11 00:46:34;;;;;;;6.70;6.00;;;16.00;99.90;;;;;;5104400;28;20197;-49
2021/07/11 00:49:02;;;;;;;6.80;6.10;;;15.90;99.90;;;;;;5107581;28;20236;-51
2021/07/11 00:51:29;;;;;;;6.77;5.77;;;15.90;99.90;;;;;;5102516;28;20560;-49
2021/07/11 00:53:56;;;;;;;6.30;5.70;;;15.90;99.90;;;;;;5106227;28;20263;-48
2021/07/11 00:56:26;;;;;;;6.00;5.23;;;15.90;99.90;;;;;;5103278;28;20185;-52
2021/07/11 00:58:53;;;;;;;5.97;5.40;;;15.80;99.90;;;;;;5093763;28;20662;-50
2021/07/11 01:01:27;;;;;;;6.53;5.93;;;15.80;99.90;;;;;;5102047;28;20193;-48
2021/07/11 01:04:01;;;;;;;6.17;5.67;;;15.80;99.90;;;;;;5107700;28;20212;-51
2021/07/11 01:06:30;;;;;;;5.60;5.10;;;15.70;99.90;;;;;;5102350;28;20200;-55
2021/07/11 01:08:59;;;;;;;5.97;5.47;;;15.80;99.90;;;;;;5107356;28;20733;-54
2021/07/11 01:11:33;;;;;;;6.07;5.57;;;15.70;99.90;;;;;;5103610;28;20412;-50
2021/07/11 01:14:01;;;;;;;6.70;6.03;;;15.70;99.90;;;;;;5086396;28;20224;-51
2021/07/11 01:16:32;;;;;;;6.27;5.77;;;15.70;99.90;;;;;;5103068;28;20416;-53
2021/07/11 01:19:11;;;;;;;6.13;5.53;;;15.70;99.90;;;;;;5106903;28;20205;-53
2021/07/11 01:21:46;;;;;;;10.23;6.00;;;15.70;99.90;;;;;;5105185;28;20197;-51
2021/07/11 01:24:21;;;;;;;6.10;5.50;;;15.70;99.90;;;;;;5104107;28;20216;-47
2021/07/11 01:26:50;;;;;;;6.97;6.37;;;15.70;99.90;;;;;;5105422;28;20268;-50
2021/07/11 01:29:19;;;;;;;6.53;5.93;;;15.70;99.90;;;;;;5089480;28;20544;-47
2021/07/11 01:31:49;;;;;;;5.90;5.40;;;15.70;99.90;;;;;;5107961;28;20197;-47
2021/07/11 01:34:17;;;;;;;6.13;5.63;;;15.70;99.90;;;;;;5104961;28;20213;-48
2021/07/11 01:36:44;;;;;;;6.37;5.87;;;15.70;99.90;;;;;;5108040;28;20753;-49
2021/07/11 01:39:16;;;;;;;5.83;5.33;;;15.70;99.90;;;;;;5103606;28;20666;-44
2021/07/11 01:41:46;;;;;;;6.67;5.87;;;15.70;99.90;;;;;;5107648;28;20264;-51
2021/07/11 01:44:16;;;;;;;7.30;6.30;;;15.70;99.90;;;;;;5088971;28;20217;-47
2021/07/11 01:46:46;;;;;;;6.03;5.53;;;15.70;99.90;;;;;;5107012;28;20255;-48
2021/07/11 01:49:14;;;;;;;5.73;5.23;;;15.70;99.90;;;;;;5102539;28;20719;-46
2021/07/11 01:51:45;;;;;;;8.23;5.63;;;15.70;99.90;;;;;;5104687;28;20228;-52
2021/07/11 01:54:13;;;;;;;6.77;6.20;;;15.70;99.90;;;;;;5102370;28;20206;-51
2021/07/11 01:56:41;;;;;;;8.27;6.10;;;15.60;99.90;;;;;;5103229;28;20426;-51
2021/07/11 01:59:12;;;;;;;6.37;5.83;;;15.60;99.90;;;;;;5095453;28;20600;-48
2021/07/11 02:01:50;;;;;;;5.77;5.27;;;15.50;99.90;;;;;;5104559;28;20612;-51
2021/07/11 02:04:18;;;;;;;6.53;5.40;;;15.50;99.90;;;;;;5101655;28;20217;-45
2021/07/11 02:06:49;;;;;;;6.23;4.97;;;15.50;99.90;;;;;;5106829;28;20201;-51
2021/07/11 02:09:20;;;;;;;6.93;5.03;;;15.50;99.90;;;;;;5100383;28;20674;-45
2021/07/11 02:11:50;;;;;;;7.03;5.80;;;15.50;99.90;;;;;;5105321;28;20293;-52
2021/07/11 02:14:24;;;;;;;6.17;5.60;;;15.50;99.90;;;;;;5089981;28;20198;-47
2021/07/11 02:16:57;;;;;;;6.50;5.50;;;15.40;99.90;;;;;;5104588;28;20190;-52
2021/07/11 02:19:37;;;;;;;6.17;5.67;;;15.40;99.90;;;;;;5100927;28;20993;-49
2021/07/11 02:22:05;;;;;;;6.27;5.50;;;15.40;99.90;;;;;;5104614;28;20408;-46
2021/07/11 02:24:36;;;;;;;6.60;6.00;;;15.40;99.90;;;;;;5102322;28;20217;-49
2021/07/11 02:27:04;;;;;;;6.37;5.60;;;15.40;99.90;;;;;;5100619;28;20647;-44
2021/07/11 02:29:36;;;;;;;6.07;5.47;;;15.40;99.90;;;;;;5099199;28;20193;-49
2021/07/11 02:32:09;;;;;;;6.30;5.77;;;15.40;99.90;;;;;;5088397;28;20209;-48
2021/07/11 02:34:36;;;;;;;6.13;5.63;;;15.40;99.90;;;;;;5103857;28;20185;-51
2021/07/11 02:37:08;;;;;;;5.60;5.20;;;15.50;99.90;;;;;;5104868;28;20202;-46
2021/07/11 02:39:39;;;;;;;6.40;5.80;;;15.50;99.90;;;;;;5102734;28;20193;-48
2021/07/11 02:42:09;;;;;;;7.63;6.17;;;15.50;99.90;;;;;;5103195;28;20198;-49
2021/07/11 02:44:38;;;;;;;6.83;6.00;;;15.50;99.90;;;;;;5102619;28;20231;-52
2021/07/11 02:47:10;;;;;;;7.70;5.77;;;15.50;99.90;;;;;;5091544;28;20225;-48
2021/07/11 02:49:46;;;;;;;6.33;5.73;;;15.50;99.90;;;;;;5102834;28;20680;-50
2021/07/11 02:52:17;;;;;;;6.50;6.00;;;15.50;99.90;;;;;;5102962;28;20678;-46
2021/07/11 02:54:49;;;;;;;6.67;6.03;;;15.50;99.90;;;;;;5104141;28;20213;-49
2021/07/11 02:57:20;;;;;;;7.37;6.20;;;15.60;99.90;;;;;;5102183;28;20639;-49
2021/07/11 02:59:49;;;;;;;7.07;6.53;;;15.60;99.90;;;;;;5105704;28;20204;-52
2021/07/11 03:02:20;;;;;;;8.20;6.53;;;15.60;99.90;;;;;;5087885;28;20247;-46
2021/07/11 03:04:51;;;;;;;8.97;6.10;;;15.60;99.90;;;;;;5105323;28;20242;-49
2021/07/11 03:07:18;;;;;;;7.27;6.57;;;15.60;99.90;;;;;;5101640;28;20215;-49
2021/07/11 03:09:45;;;;;;;7.50;5.87;;;15.70;99.90;;;;;;5103691;28;20592;-50
2021/07/11 03:12:17;;;;;;;8.23;6.63;;;15.70;99.90;;;;;;5102427;28;20204;-49
2021/07/11 03:14:48;;;;;;;6.50;6.00;;;15.80;99.90;;;;;;5103941;28;20254;-53
2021/07/11 03:17:20;;;;;;;6.53;5.77;;;15.80;99.90;;;;;;5088128;28;20576;-50
2021/07/11 03:19:50;;;;;;;5.73;5.30;;;15.80;99.90;;;;;;5102419;28;20292;-48
2021/07/11 03:22:23;;;;;;;6.13;5.53;;;15.80;99.90;;;;;;5101976;28;20224;-48
2021/07/11 03:24:53;;;;;;;6.13;5.63;;;15.90;99.90;;;;;;5105800;28;20216;-48
2021/07/11 03:27:20;;;;;;;6.53;5.80;;;15.90;99.90;;;;;;5098954;28;20973;-47
2021/07/11 03:30:00;;;;;;;6.40;5.80;;;15.90;99.90;;;;;;5102174;28;20207;-47
2021/07/11 03:32:29;;;;;;;6.60;5.97;;;15.90;99.90;;;;;;5086108;28;20600;-48
2021/07/11 03:34:59;;;;;;;5.57;5.07;;;16.00;99.90;;;;;;5095453;28;20203;-48
2021/07/11 03:37:30;;;;;;;6.30;5.70;;;16.00;99.90;;;;;;5098771;28;20444;-51
2021/07/11 03:39:59;;;;;;;7.20;5.47;;;16.00;99.90;;;;;;5102224;28;20189;-49
2021/07/11 03:42:34;;;;;;;6.47;5.87;;;16.10;99.90;;;;;;5098696;28;20213;-49
2021/07/11 03:45:04;;;;;;;5.57;5.07;;;16.10;99.90;;;;;;5104228;28;20258;-50
2021/07/11 03:47:38;;;;;;;6.83;5.20;;;16.10;99.90;;;;;;5104776;28;20185;-47
2021/07/11 03:50:07;;;;;;;6.13;5.30;;;16.20;99.90;;;;;;5092838;28;20208;-52
2021/07/11 03:52:41;;;;;;;5.97;5.40;;;16.20;99.90;;;;;;5104786;28;20341;-49
2021/07/11 03:55:10;;;;;;;7.27;5.30;;;16.20;99.90;;;;;;5105906;28;20212;-47
2021/07/11 03:57:38;;;;;;;6.63;5.27;;;16.30;99.90;;;;;;5102077;28;20197;-46
2021/07/11 04:00:06;;;;;;;7.93;5.33;;;16.30;99.90;;;;;;5097023;28;20201;-46
2021/07/11 04:02:43;;;;;;;5.17;4.67;;;16.30;99.90;;;;;;5106113;28;20852;-49
2021/07/11 04:05:11;;;;;;;5.93;5.47;;;16.30;99.90;;;;;;5092324;28;20278;-47
2021/07/11 04:07:39;;;;;;;5.50;5.00;;;16.30;99.90;;;;;;5105396;28;20818;-46
2021/07/11 04:10:07;;;;;;;11.13;5.73;;;16.30;99.90;;;;;;5105950;28;20202;-46
2021/07/11 04:12:34;;;;;;;6.63;5.87;;;16.30;99.90;;;;;;5104882;28;20205;-50
2021/07/11 04:15:01;;;;;;;9.10;5.30;;;16.40;99.90;;;;;;5107331;28;20193;-49
2021/07/11 04:17:29;;;;;;;6.33;5.43;;;16.40;99.90;;;;;;5103206;28;20567;-48
2021/07/11 04:19:59;;;;;;;5.87;5.20;;;16.40;99.90;;;;;;5092984;28;20254;-48
2021/07/11 04:22:27;;;;;;;7.67;6.13;;;16.40;99.90;;;;;;5102292;28;20225;-51
2021/07/11 04:24:54;;;;;;;7.80;6.50;;;16.50;99.90;;;;;;5106995;28;20212;-53
2021/07/11 04:27:23;;;;;;;6.13;5.07;;;16.50;99.90;;;;;;5095006;28;20299;-50
2021/07/11 04:29:50;;;;;;;5.97;5.47;;;16.50;99.90;;;;;;5106082;28;20186;-48
2021/07/11 04:32:17;;;;;;;6.00;5.47;;;16.60;99.90;;;;;;5101779;28;20346;-50
2021/07/11 04:34:44;;;;;;;5.77;5.23;;;16.60;99.90;;;;;;5106748;28;20186;-50
2021/07/11 04:37:13;;;;;;;7.37;5.67;;;16.60;99.90;;;;;;5090472;28;20201;-52
2021/07/11 04:39:40;;;;;;;6.57;5.30;;;16.60;99.90;;;;;;5105260;28;20221;-46
2021/07/11 04:42:07;;;;;;;5.87;5.37;;;16.60;99.90;;;;;;5105584;28;20209;-53
2021/07/11 04:44:34;;;;;;;6.83;5.50;;;16.70;99.90;;;;;;5103835;28;20641;-49
2021/07/11 04:47:01;;;;;;;6.80;4.83;;;16.70;99.90;;;;;;5106512;28;20213;-49
2021/07/11 04:49:28;;;;;;;5.10;4.70;;;16.80;99.90;;;;;;5102291;28;20201;-49
2021/07/11 04:51:56;;;;;;;6.00;5.37;;;16.80;99.90;;;;;;5091907;27;20300;-46
2021/07/11 04:54:25;;;;;;;6.80;5.40;;;16.80;99.90;;;;;;5102052;28;20957;-47
2021/07/11 04:56:52;;;;;;;6.17;5.60;;;16.90;99.90;;;;;;5102977;28;20181;-48
2021/07/11 04:59:18;;;;;;;5.17;4.77;;;16.90;99.90;;;;;;5096964;28;20193;-51
2021/07/11 05:01:45;;;;;;;5.17;4.80;;;16.90;99.90;;;;;;5106290;28;20193;-48
2021/07/11 05:04:12;;;;;;;7.00;5.73;;;17.00;99.90;;;;;;5103374;28;20216;-50
2021/07/11 05:06:39;;;;;;;5.63;5.00;;;17.00;99.90;;;;;;5089275;28;20233;-49
2021/07/11 05:09:06;;;;;;;8.27;6.50;;;17.10;99.90;;;;;;5104705;28;20197;-49
2021/07/11 05:11:34;;;;;;;6.17;5.60;;;17.10;99.90;;;;;;5103897;28;20190;-51
2021/07/11 05:14:01;;;;;;;6.00;5.47;;;17.10;99.90;;;;;;5105937;28;20209;-52
2021/07/11 05:16:28;;;;;;;5.30;4.90;;;17.20;99.90;;;;;;5101922;28;20313;-48
2021/07/11 05:18:55;;;;;;;6.20;5.70;;;17.20;99.90;;;;;;5105524;28;20191;-51
2021/07/11 05:21:21;;;;;;;7.57;5.43;;;17.20;99.90;;;;;;5087286;28;20280;-48
2021/07/11 05:23:48;;;;;;;5.50;5.00;;;17.30;99.90;;;;;;5105561;28;20702;-50
2021/07/11 05:26:15;;;;;;;6.83;5.90;;;17.30;99.90;;;;;;5102588;28;20705;-48
2021/07/11 05:28:44;;;;;;;5.90;5.40;;;17.40;99.90;;;;;;5096277;28;20197;-47
2021/07/11 05:31:12;;;;;;;5.83;5.33;;;17.40;99.90;;;;;;5103332;28;20197;-52
2021/07/11 05:33:38;;;;;;;7.57;6.23;;;17.50;99.90;;;;;;5104089;28;20201;-51
2021/07/11 05:36:07;;;;;;;6.03;5.53;;;17.50;99.90;;;;;;5104421;28;20189;-51
2021/07/11 05:38:34;;;;;;;6.30;5.70;;;17.60;99.90;;;;;;5089726;28;20197;-47
2021/07/11 05:41:00;;;;;;;7.53;5.60;;;17.60;99.90;;;;;;5105178;28;20192;-49
2021/07/11 05:43:27;;;;;;;8.30;6.10;;;17.70;99.90;;;;;;5101084;28;20209;-49
2021/07/11 05:45:55;;;;;;;7.00;5.43;;;17.70;99.90;;;;;;5105202;28;20213;-51
2021/07/11 05:48:22;;;;;;;7.03;5.57;;;17.70;99.90;;;;;;5100927;28;20190;-53
2021/07/11 05:50:49;;;;;;;10.17;5.73;;;17.80;99.90;;;;;;5101918;28;20205;-52
2021/07/11 05:53:16;;;;;;;7.43;5.80;;;17.80;99.90;;;;;;5088233;28;20578;-50
2021/07/11 05:55:42;;;;;;;5.90;5.30;;;17.90;99.90;;;;;;5104711;28;20185;-49
2021/07/11 05:58:09;;;;;;;7.33;5.77;;;17.90;99.90;;;;;;5103072;28;20650;-50
2021/07/11 06:00:36;;;;;;;6.97;5.90;;;18.00;99.90;;;;;;5102867;28;20182;-50
2021/07/11 06:03:04;;;;;;;7.77;5.40;;;18.00;99.90;;;;;;5104390;28;20209;-47
2021/07/11 06:05:31;;;;;;;6.23;5.57;;;18.10;99.90;;;;;;5102040;28;20855;-48
2021/07/11 06:07:58;;;;;;;5.47;5.07;;;18.10;99.90;;;;;;5091068;28;20584;-50
2021/07/11 06:10:24;;;;;;;5.83;5.27;;;18.10;99.90;;;;;;5100633;28;20202;-51
2021/07/11 06:12:51;;;;;;;11.87;6.40;;;18.10;99.90;;;;;;5104803;28;20217;-48
2021/07/11 06:15:18;;;;;;;5.60;5.13;;;18.10;99.90;;;;;;5101439;28;20205;-51
2021/07/11 06:17:44;;;;;;;7.07;6.20;;;18.10;99.90;;;;;;5104577;28;20193;-49
2021/07/11 06:20:13;;;;;;;11.30;6.70;;;18.10;99.90;;;;;;5102180;28;20190;-52
2021/07/11 06:22:41;;;;;;;5.27;4.87;;;18.10;99.90;;;;;;5101234;28;20484;-51
2021/07/11 06:25:09;;;;;;;6.57;5.93;;;18.10;99.90;;;;;;5089106;28;20202;-49
2021/07/11 06:27:36;;;;;;;5.80;5.30;;;18.10;99.90;;;;;;5099850;28;20217;-48
2021/07/11 06:30:06;;;;;;;6.93;5.87;;;18.10;99.90;;;;;;5103671;28;20550;-49
2021/07/11 06:32:32;;;;;;;6.63;5.37;;;18.10;99.90;;;;;;5102184;28;20209;-50
2021/07/11 06:34:59;;;;;;;6.70;5.40;;;18.20;99.90;;;;;;5104610;28;20194;-51
2021/07/11 06:37:27;;;;;;;6.60;6.00;;;18.20;99.90;;;;;;5100541;28;20389;-47
2021/07/11 06:39:54;;;;;;;6.73;5.73;;;18.20;99.90;;;;;;5089959;28;20194;-50
2021/07/11 06:42:20;;;;;;;8.13;5.97;;;18.30;99.90;;;;;;5100068;28;20225;-52
2021/07/11 06:44:47;;;;;;;5.93;5.43;;;18.30;99.90;;;;;;5092897;28;20198;-49
2021/07/11 06:47:14;;;;;;;6.33;5.63;;;18.40;99.90;;;;;;5099732;28;20205;-49
2021/07/11 06:49:40;;;;;;;7.30;6.13;;;18.50;99.90;;;;;;5103800;28;20359;-47
2021/07/11 06:52:07;;;;;;;6.83;5.63;;;18.60;99.90;;;;;;5078702;28;20208;-51
2021/07/11 06:54:35;;;;;;;5.90;5.40;;;18.70;99.90;;;;;;5076344;28;20215;-47
2021/07/11 06:57:02;;;;;;;5.60;5.10;;;18.80;99.90;;;;;;5098522;28;20193;-47
2021/07/11 06:59:29;;;;;;;6.27;5.73;;;18.90;99.90;;;;;;5093761;28;20182;-50
2021/07/11 07:01:56;;;;;;;6.23;5.70;;;19.00;99.90;;;;;;5095045;28;20181;-50
2021/07/11 07:04:22;;;;;;;6.13;5.13;;;19.00;99.90;;;;;;5086194;28;20212;-46
2021/07/11 07:06:50;;;;;;;5.13;4.73;;;19.20;99.90;;;;;;5091378;28;20244;-48
2021/07/11 07:09:16;;;;;;;6.90;4.70;;;19.20;99.90;;;;;;5091082;28;20224;-47
2021/07/11 07:11:44;;;;;;;4.87;4.43;;;19.30;99.90;;;;;;5086917;28;20226;-46
2021/07/11 07:14:11;;;;;;;4.77;4.43;;;19.30;99.90;;;;;;5098937;28;20580;-47
2021/07/11 07:16:38;;;;;;;4.70;4.13;;;19.40;99.90;;;;;;5103387;28;20197;-46
2021/07/11 07:19:05;;;;;;;6.63;4.57;;;19.50;99.90;;;;;;5097900;28;20806;-52
2021/07/11 07:21:32;;;;;;;4.10;3.80;;;19.50;99.90;;;;;;5102787;28;20583;-46
2021/07/11 07:23:58;;;;;;;8.07;5.20;;;19.60;99.90;;;;;;5095039;28;20229;-48
2021/07/11 07:26:25;;;;;;;4.63;4.23;;;19.70;99.90;;;;;;5088788;28;20220;-49
2021/07/11 07:28:53;;;;;;;4.57;4.17;;;19.70;99.90;;;;;;5093133;28;20243;-45
2021/07/11 07:31:19;;;;;;;5.20;3.90;;;19.80;99.90;;;;;;5102124;28;20189;-45
2021/07/11 07:33:46;;;;;;;4.20;3.83;;;19.90;99.90;;;;;;5099952;28;20213;-52
2021/07/11 07:36:13;;;;;;;4.33;4.03;;;20.00;99.90;;;;;;5099905;28;20196;-47
2021/07/11 07:38:40;;;;;;;4.23;4.00;;;20.10;99.90;;;;;;5097667;28;20201;-46
2021/07/11 07:41:06;;;;;;;4.87;4.13;;;20.10;99.90;;;;;;5096075;28;20945;-45
2021/07/11 07:43:33;;;;;;;4.47;4.17;;;20.20;99.90;;;;;;5085564;28;20213;-48
2021/07/11 07:46:01;;;;;;;5.87;4.27;;;20.20;99.90;;;;;;5096551;28;20224;-49
2021/07/11 07:48:28;;;;;;;4.43;3.90;;;20.30;99.90;;;;;;5102315;28;20209;-46
2021/07/11 07:50:55;;;;;;;4.40;4.10;;;20.40;99.90;;;;;;5094716;28;20211;-50
2021/07/11 07:53:22;;;;;;;4.40;4.00;;;20.50;99.90;;;;;;5091871;28;20225;-46
2021/07/11 07:55:48;;;;;;;4.97;4.13;;;20.50;99.90;;;;;;5092797;28;20220;-50
2021/07/11 07:58:15;;;;;;;5.77;3.90;;;20.60;99.90;;;;;;5081325;28;20198;-46
2021/07/11 08:00:42;;;;;;;4.53;4.23;;;20.60;99.90;;;;;;5090308;28;20277;-47
2021/07/11 08:03:10;;;;;;;4.27;3.90;;;20.70;99.90;;;;;;5099186;28;20499;-46
2021/07/11 08:05:37;;;;;;;4.13;3.73;;;20.80;99.90;;;;;;5103502;28;20185;-46
2021/07/11 08:08:05;;;;;;;5.00;3.90;;;20.80;99.90;;;;;;5094541;28;20229;-48
2021/07/11 08:10:32;;;;;;;4.27;3.77;;;21.00;99.90;;;;;;5092129;28;20265;-47
2021/07/11 08:12:59;;;;;;;4.00;3.70;;;21.10;99.90;;;;;;5088048;28;20213;-50
2021/07/11 08:15:25;;;;;;;4.90;4.40;;;21.20;99.90;;;;;;5098651;28;20565;-48
2021/07/11 08:17:52;;;;;;;4.30;3.90;;;21.20;99.90;;;;;;5084094;28;20201;-49
2021/07/11 08:20:22;;;;;;;4.30;3.90;;;21.20;99.90;;;;;;5096960;28;20206;-45
2021/07/11 08:22:50;;;;;;;4.23;3.83;;;21.30;99.90;;;;;;5099717;28;20221;-48
2021/07/11 08:25:17;;;;;;;4.90;3.63;;;21.40;99.90;;;;;;5095761;28;20303;-46
2021/07/11 08:27:45;;;;;;;4.47;3.83;;;21.40;99.90;;;;;;5094072;28;20241;-47
2021/07/11 08:30:13;;;;;;;3.73;3.47;;;21.50;99.90;;;;;;5084654;28;20282;-46
2021/07/11 08:32:40;;;;;;;5.43;3.63;;;21.60;99.90;;;;;;5101468;28;20217;-47
2021/07/11 08:35:08;;;;;;;5.63;4.17;;;21.70;99.90;;;;;;5083354;28;20189;-50
2021/07/11 08:37:36;;;;;;;5.28;3.92;;;21.80;99.90;;;;;;5086370;28;20197;-48
2021/07/11 08:40:04;;;;;;;4.00;3.60;;;21.80;99.90;;;;;;5081954;28;20191;-48
2021/07/11 08:42:33;;;;;;;3.97;3.67;;;21.90;99.90;;;;;;5087205;28;20234;-48
2021/07/11 08:45:00;;;;;;;3.83;3.50;;;21.90;99.90;;;;;;5073800;28;20554;-48
2021/07/11 08:47:27;;;;;;;4.57;4.18;;;22.00;99.90;;;;;;5099388;28;20208;-52
2021/07/11 08:49:54;;;;;;;4.00;3.60;;;22.10;99.90;;;;;;5102909;28;20193;-48
2021/07/11 08:52:20;;;;;;;4.43;4.03;;;22.20;99.90;;;;;;5104478;28;20206;-50
2021/07/11 08:54:48;;;;;;;5.40;3.67;;;22.30;99.90;;;;;;5105358;28;20200;-51
2021/07/11 08:57:15;;;;;;;4.88;3.92;;;22.30;99.90;;;;;;5081723;28;20190;-50
2021/07/11 08:59:43;;;;;;;3.83;3.47;;;22.40;99.90;;;;;;5102966;28;20213;-45
2021/07/11 09:02:11;;;;;;;3.95;3.60;;;22.50;99.90;;;;;;5082904;28;23296;-51
2021/07/11 09:04:39;;;;;;;3.95;3.65;;;22.50;99.90;;;;;;5101894;28;20202;-51
2021/07/11 09:07:06;;;;;;;4.75;3.65;;;22.60;99.90;;;;;;5102215;27;20216;-51
2021/07/11 09:09:34;;;;;;;4.78;3.72;;;22.70;99.90;;;;;;5092311;28;20663;-50
2021/07/11 09:12:06;;;;;;;4.35;3.75;;;22.70;99.90;;;;;;5083687;28;20204;-50
2021/07/11 09:14:34;;;;;;;3.70;3.40;;;22.90;99.90;;;;;;5102070;28;20196;-48
2021/07/11 09:17:03;;;;;;;5.15;4.15;;;22.90;99.90;;;;;;5079559;28;20221;-51
2021/07/11 09:19:31;;;;;;;4.03;3.72;;;22.90;99.90;;;;;;5097687;28;20201;-48
2021/07/11 09:22:01;;;;;;;4.32;4.03;;;23.00;99.90;;;;;;5101302;28;20194;-51
2021/07/11 09:24:29;;;;;;;4.30;4.00;;;23.10;99.90;;;;;;5100796;28;20279;-49
2021/07/11 09:27:08;;;;;;;4.10;3.47;;;23.00;99.90;;;;;;5096108;28;20209;-50
2021/07/11 09:29:35;;;;;;;4.18;3.75;;;22.90;99.90;;;;;;5097569;28;20559;-51
2021/07/11 09:32:02;;;;;;;3.70;3.40;;;22.90;99.90;;;;;;5085547;28;20686;-53
2021/07/11 09:34:30;;;;;;;3.83;3.63;;;23.00;99.90;;;;;;5101560;28;20201;-50
2021/07/11 09:37:11;;;;;;;5.72;3.83;;;23.10;99.90;;;;;;5096499;28;20201;-49
2021/07/11 09:39:50;;;;;;;5.03;4.53;;;23.10;99.90;;;;;;5098405;28;20196;-51
2021/07/11 09:42:32;;;;;;;4.30;3.83;;;23.10;99.90;;;;;;5099479;28;20215;-48
2021/07/11 09:45:01;;;;;;;4.18;3.83;;;23.20;99.90;;;;;;5089137;28;20205;-53
2021/07/11 09:47:29;;;;;;;4.28;3.70;;;23.20;99.90;;;;;;5088602;28;20694;-48
2021/07/11 09:50:08;;;;;;;4.50;4.18;;;23.30;99.90;;;;;;5089653;28;20562;-50
2021/07/11 09:52:35;;;;;;;4.40;4.00;;;23.30;99.90;;;;;;5094353;28;20225;-49
2021/07/11 09:55:07;;;;;;;4.47;4.10;;;23.30;99.90;;;;;;5101198;28;20207;-52
2021/07/11 09:57:37;;;;;;;4.30;3.90;;;23.40;99.90;;;;;;5103913;28;20190;-47
2021/07/11 10:00:14;;;;;;;4.55;4.22;;;23.50;99.90;;;;;;5087325;28;20201;-48
2021/07/11 10:02:42;;;;;;;6.30;4.47;;;23.60;99.90;;;;;;5088010;28;20219;-47
2021/07/11 10:05:11;;;;;;;4.18;3.78;;;23.70;99.90;;;;;;5089836;28;20201;-46
2021/07/11 10:07:39;;;;;;;4.03;3.72;;;23.90;99.90;;;;;;5103228;28;20213;-49
2021/07/11 10:10:08;;;;;;;4.32;3.92;;;23.90;99.90;;;;;;5084774;28;20829;-49
2021/07/11 10:12:37;;;;;;;4.60;3.80;;;23.80;99.90;;;;;;5084710;28;20216;-50
2021/07/11 10:15:06;;;;;;;5.18;4.07;;;23.90;99.90;;;;;;5093545;28;20427;-51
2021/07/11 10:17:33;;;;;;;4.53;4.13;;;23.90;99.90;;;;;;5090921;28;20198;-46
2021/07/11 10:20:02;;;;;;;4.35;4.05;;;23.90;99.90;;;;;;5089774;28;20198;-51
2021/07/11 10:22:28;;;;;;;3.97;3.67;;;24.00;99.90;;;;;;5103303;28;20224;-48
2021/07/11 10:24:56;;;;;;;5.03;4.55;;;24.10;99.90;;;;;;5093919;28;20267;-48
2021/07/11 10:27:27;;;;;;;4.65;4.25;;;24.20;99.90;;;;;;5099391;28;20202;-50
2021/07/11 10:29:57;;;;;;;6.95;5.10;;;24.30;99.90;;;;;;5090716;28;20201;-49
2021/07/11 10:32:30;;;;;;;5.20;4.70;;;24.30;99.90;;;;;;5098075;28;20225;-48
2021/07/11 10:35:08;;;;;;;5.10;4.25;;;24.40;99.90;;;;;;5079416;28;20224;-51
2021/07/11 10:37:43;;;;;;;4.93;4.03;;;24.40;99.90;;;;;;5094114;28;20193;-46
2021/07/11 10:40:11;;;;;;;4.93;4.55;;;24.30;99.90;;;;;;5100724;28;20804;-46
2021/07/11 10:42:38;;;;;;;6.25;4.45;;;24.40;99.90;;;;;;5093326;28;20227;-49
2021/07/11 10:45:08;;;;;;;5.15;4.72;;;24.40;99.90;;;;;;5084317;28;20193;-47
2021/07/11 10:47:35;;;;;;;5.30;4.78;;;24.70;99.90;;;;;;5096084;28;20213;-46
2021/07/11 10:50:03;;;;;;;7.82;5.30;;;24.80;99.90;;;;;;5086296;28;20209;-48
2021/07/11 10:52:30;;;;;;;5.90;5.30;;;24.90;99.90;;;;;;5099044;28;20229;-48
2021/07/11 10:54:59;;;;;;;4.63;4.22;;;24.90;99.90;;;;;;5093251;28;20186;-49
2021/07/11 10:57:33;;;;;;;9.90;4.70;;;24.80;99.90;;;;;;5088128;28;20571;-46
2021/07/11 11:00:16;;;;;;;5.38;5.07;;;24.80;99.90;;;;;;5085021;28;20284;-51
2021/07/11 11:02:45;;;;;;;6.05;4.43;;;24.80;99.90;;;;;;5101496;27;20223;-48
2021/07/11 11:05:15;;;;;;;6.28;5.05;;;24.90;99.90;;;;;;5085998;28;20270;-47
2021/07/11 11:07:45;;;;;;;5.20;4.80;;;25.00;99.90;;;;;;5098418;28;20221;-47
2021/07/11 11:10:20;;;;;;;5.47;4.72;;;25.00;99.90;;;;;;5100224;28;20919;-46
2021/07/11 11:12:58;;;;;;;7.63;5.15;;;25.00;99.90;;;;;;5097178;28;20213;-50
2021/07/11 11:15:34;;;;;;;5.32;4.82;;;24.80;99.90;;;;;;5094108;28;20223;-48
2021/07/11 11:18:18;;;;;;;5.07;4.68;;;24.70;99.90;;;;;;5089815;28;20189;-53
2021/07/11 11:20:57;;;;;;;5.20;4.85;;;24.60;99.90;;;;;;5087508;28;20200;-51
2021/07/11 11:23:25;;;;;;;5.28;4.88;;;24.60;99.90;;;;;;5093329;28;20240;-46
2021/07/11 11:25:52;;;;;;;5.18;4.78;;;24.60;99.90;;;;;;5099744;28;20199;-47
2021/07/11 11:28:29;;;;;;;5.05;4.65;;;24.60;99.90;;;;;;5087700;28;20574;-46
2021/07/11 11:31:22;;;;;;;7.13;5.07;;;24.60;99.90;;;;;;5085583;28;20201;-52
2021/07/11 11:33:55;;;;;;;5.65;4.97;;;24.70;99.90;;;;;;5087739;28;20286;-51
2021/07/11 11:36:23;;;;;;;6.05;5.47;;;24.80;99.90;;;;;;5078915;28;20297;-48
2021/07/11 11:38:51;;;;;;;5.85;4.93;;;24.80;99.90;;;;;;5091851;28;20733;-49
2021/07/11 11:41:19;;;;;;;5.63;4.60;;;24.90;99.90;;;;;;5099581;28;20185;-45
2021/07/11 11:43:47;;;;;;;4.78;4.35;;;24.90;99.90;;;;;;5095335;28;20602;-52
2021/07/11 11:46:25;;;;;;;4.63;4.28;;;25.00;99.90;;;;;;5094073;28;20209;-49
2021/07/11 11:48:56;;;;;;;5.82;4.55;;;25.10;99.90;;;;;;5095477;28;20227;-46
2021/07/11 11:51:23;;;;;;;4.63;4.22;;;25.20;99.90;;;;;;5087108;28;20205;-45
2021/07/11 11:53:50;;;;;;;5.05;4.50;;;25.20;99.90;;;;;;5098533;28;20232;-51
2021/07/11 11:56:16;;;;;;;5.10;4.57;;;25.10;99.90;;;;;;5094875;28;20197;-49
2021/07/11 11:58:43;;;;;;;4.82;4.43;;;24.90;99.90;;;;;;5086944;28;20571;-47
2021/07/11 12:01:14;;;;;;;6.03;4.60;;;24.80;99.90;;;;;;5087647;28;20553;-46
2021/07/11 12:03:43;;;;;;;6.70;4.82;;;24.80;99.90;;;;;;5100667;28;20213;-46
2021/07/11 12:06:11;;;;;;;5.53;4.38;;;24.80;99.90;;;;;;5087501;28;20213;-47
2021/07/11 12:08:40;;;;;;;5.53;5.07;;;24.70;99.90;;;;;;5104508;28;20224;-45
2021/07/11 12:11:09;;;;;;;5.18;4.85;;;24.70;99.90;;;;;;5096247;28;20206;-48
2021/07/11 12:13:36;;;;;;;4.70;4.40;;;24.60;99.90;;;;;;5094560;28;20210;-49
2021/07/11 12:16:11;;;;;;;4.65;4.35;;;24.60;99.90;;;;;;5083734;28;20206;-50
2021/07/11 12:18:47;;;;;;;5.43;4.93;;;24.70;99.90;;;;;;5096650;28;20275;-46
2021/07/11 12:21:20;;;;;;;5.28;4.97;;;24.50;99.90;;;;;;5083588;28;21016;-47
2021/07/11 12:24:01;;;;;;;5.03;4.63;;;24.40;99.90;;;;;;5101592;28;20251;-49
2021/07/11 12:26:29;;;;;;;5.78;5.20;;;24.20;99.90;;;;;;5097337;28;20292;-48
2021/07/11 12:28:57;;;;;;;6.28;5.47;;;24.30;99.90;;;;;;5099177;28;20209;-49
2021/07/11 12:31:25;;;;;;;5.57;5.15;;;24.30;99.90;;;;;;5105153;28;20182;-47
2021/07/11 12:34:02;;;;;;;5.05;4.65;;;24.50;99.90;;;;;;5096115;28;20228;-48
2021/07/11 12:36:30;;;;;;;5.05;4.75;;;24.70;99.90;;;;;;5088913;27;20208;-50
2021/07/11 12:38:58;;;;;;;4.80;4.50;;;24.90;99.90;;;;;;5094479;28;20201;-49
2021/07/11 12:41:27;;;;;;;5.22;4.78;;;25.00;99.90;;;;;;5101602;28;20602;-48
2021/07/11 12:43:55;;;;;;;4.53;4.15;;;25.30;99.90;;;;;;5094037;28;20829;-55
2021/07/11 12:46:25;;;;;;;5.00;4.68;;;25.40;99.90;;;;;;5106030;28;20193;-49
2021/07/11 12:48:54;;;;;;;5.57;5.10;;;25.50;99.90;;;;;;5089319;28;20244;-50
2021/07/11 12:51:24;;;;;;;4.47;4.18;;;25.60;99.90;;;;;;5086265;28;20670;-46
2021/07/11 12:53:52;;;;;;;4.72;4.30;;;25.60;99.90;;;;;;5087296;28;20225;-51
2021/07/11 12:56:21;;;;;;;4.70;4.30;;;25.80;99.90;;;;;;5097112;28;20654;-52